Time;durP1;ratioP1;P1;durP2;ratioP2;P2;SDS_P1;SDS_P2;PMS_P1;PMS_P2;Temp;Humidity;BMP_temperature;BMP_pressure;BME280_temperature;BME280_humidity;BME280_pressure;Samples;Min_cycle;Max_cycle;Signal;HPM_P1;HPM_P2
2022/03/20 00:01:04;;;;;;;12.17;7.23;;;;;;;5.30;59.16;100383.50;8243883;28;20058;-72
2022/03/20 00:05:06;;;;;;;10.18;6.88;;;;;;;5.31;58.62;100374.94;8245505;28;20058;-73
2022/03/20 00:09:08;;;;;;;11.23;7.85;;;;;;;5.31;58.58;100374.94;8235197;28;20556;-73
2022/03/20 00:13:11;;;;;;;9.97;7.20;;;;;;;5.33;58.36;100375.88;8247977;28;20087;-72
2022/03/20 00:17:13;;;;;;;10.00;6.87;;;;;;;5.34;57.99;100355.31;8244814;28;20058;-73
2022/03/20 00:21:15;;;;;;;11.67;7.80;;;;;;;5.36;58.12;100340.78;8245831;28;20057;-73
2022/03/20 00:25:17;;;;;;;10.20;7.13;;;;;;;5.37;57.93;100344.22;8245391;28;20185;-73
2022/03/20 00:29:18;;;;;;;10.27;7.37;;;;;;;5.38;57.70;100341.69;8248224;28;20158;-73
2022/03/20 00:33:20;;;;;;;11.10;7.90;;;;;;;5.39;57.63;100351.22;8549317;23;20094;-74
2022/03/20 00:37:21;;;;;;;9.80;7.10;;;;;;;5.38;57.79;100336.56;8171261;28;20092;-74
2022/03/20 00:41:22;;;;;;;9.07;7.07;;;;;;;5.39;57.57;100340.03;8170789;28;20558;-74
2022/03/20 00:45:24;;;;;;;15.10;8.03;;;;;;;5.37;57.49;100328.78;8167572;28;20069;-73
2022/03/20 00:49:25;;;;;;;9.63;7.27;;;;;;;5.36;57.52;100327.91;8172943;28;20093;-74
2022/03/20 00:53:27;;;;;;;9.40;7.23;;;;;;;5.33;57.37;100320.09;8170736;28;20047;-73
2022/03/20 00:57:29;;;;;;;9.37;6.60;;;;;;;5.31;57.45;100324.31;8169829;28;20615;-74
2022/03/20 01:01:31;;;;;;;9.57;7.45;;;;;;;5.32;57.48;100314.91;8166543;28;20062;-74
2022/03/20 01:05:33;;;;;;;9.07;6.70;;;;;;;5.30;57.84;100314.84;8170024;28;21565;-74
2022/03/20 01:09:35;;;;;;;8.13;6.20;;;;;;;5.30;57.34;100307.13;8177146;28;20105;-74
2022/03/20 01:13:36;;;;;;;10.25;7.25;;;;;;;5.31;57.36;100305.44;8177147;28;20055;-74
2022/03/20 01:17:38;;;;;;;9.43;6.53;;;;;;;5.28;57.54;100292.47;8156844;28;20058;-74
2022/03/20 01:21:41;;;;;;;9.68;6.68;;;;;;;5.29;57.87;100286.47;8177377;28;20372;-74
2022/03/20 01:25:42;;;;;;;10.43;7.35;;;;;;;5.27;57.72;100291.59;8177501;28;20181;-73
2022/03/20 01:29:44;;;;;;;11.80;7.17;;;;;;;5.27;57.28;100285.56;8176551;28;20054;-73
2022/03/20 01:33:46;;;;;;;9.23;5.65;;;;;;;5.27;57.67;100273.56;8179795;28;20515;-74
2022/03/20 01:37:47;;;;;;;10.03;7.13;;;;;;;5.28;57.35;100271.88;8208204;28;20062;-74
2022/03/20 01:41:49;;;;;;;9.70;7.40;;;;;;;5.26;57.28;100251.22;8208567;28;20053;-74
2022/03/20 01:45:50;;;;;;;8.53;6.73;;;;;;;5.23;57.06;100253.72;8204427;28;20054;-74
2022/03/20 01:49:52;;;;;;;12.30;7.53;;;;;;;5.18;57.13;100246.66;8210156;28;20066;-74
2022/03/20 01:53:53;;;;;;;9.97;6.97;;;;;;;5.16;57.02;100231.16;8207765;28;20050;-74
2022/03/20 01:57:56;;;;;;;9.53;6.93;;;;;;;5.16;57.24;100231.16;8207387;28;20054;-74
2022/03/20 02:02:00;;;;;;;7.90;6.53;;;;;;;5.15;56.87;100231.97;8198123;28;20457;-74
2022/03/20 02:06:02;;;;;;;9.67;6.63;;;;;;;5.15;56.76;100224.25;8208171;28;20062;-74
2022/03/20 02:10:04;;;;;;;9.07;6.30;;;;;;;5.12;56.95;100219.91;8206819;28;20062;-74
2022/03/20 02:14:06;;;;;;;10.23;6.28;;;;;;;5.13;56.90;100221.66;8207521;28;20058;-73
2022/03/20 02:18:10;;;;;;;10.65;6.45;;;;;;;5.11;56.92;100218.16;8203290;28;20109;-74
2022/03/20 02:22:12;;;;;;;8.60;6.83;;;;;;;5.11;56.67;100209.56;8205561;28;20061;-73
2022/03/20 02:26:13;;;;;;;6.57;5.60;;;;;;;5.09;56.63;100201.78;8207188;28;20062;-74
2022/03/20 02:30:18;;;;;;;8.97;6.17;;;;;;;5.09;57.10;100198.34;8204887;28;20145;-74
2022/03/20 02:34:19;;;;;;;9.27;6.50;;;;;;;5.04;56.48;100193.06;8204677;28;20161;-74
2022/03/20 02:38:21;;;;;;;9.20;6.77;;;;;;;5.04;56.61;100185.34;8220254;28;20051;-74
2022/03/20 02:42:23;;;;;;;8.38;6.15;;;;;;;5.06;56.47;100198.25;8206546;28;20173;-74
2022/03/20 02:46:25;;;;;;;7.68;6.35;;;;;;;5.04;56.55;100187.91;8203108;28;20085;-74
2022/03/20 02:50:37;;;;;;;9.90;6.70;;;;;;;5.02;56.22;100191.25;8209212;28;20058;-74
2022/03/20 02:54:38;;;;;;;7.22;5.82;;;;;;;4.98;55.64;100191.97;8206162;28;20451;-74
2022/03/20 02:58:40;;;;;;;9.77;6.30;;;;;;;4.95;56.13;100190.19;8205170;28;20050;-74
2022/03/20 03:02:43;;;;;;;10.73;6.77;;;;;;;4.94;56.46;100191.03;8203345;28;20050;-74
2022/03/20 03:06:46;;;;;;;8.33;5.47;;;;;;;4.91;56.64;100196.09;8210076;28;20097;-74
2022/03/20 03:10:55;;;;;;;9.90;6.70;;;;;;;4.90;56.86;100189.19;8210274;28;20448;-74
2022/03/20 03:19:17;;;;;;;10.43;6.87;;;;;;;4.87;55.92;100183.94;8209583;28;20061;-74
2022/03/20 03:23:20;;;;;;;7.20;5.70;;;;;;;4.89;55.77;100179.72;8210093;28;20047;-74
2022/03/20 03:27:22;;;;;;;8.10;5.57;;;;;;;4.88;55.66;100180.56;8226451;28;20679;-74
2022/03/20 03:31:23;;;;;;;9.03;6.60;;;;;;;4.87;55.96;100180.50;8203605;28;20059;-74
2022/03/20 03:35:44;;;;;;;9.47;5.87;;;;;;;4.88;55.82;100174.53;8209972;28;20082;-74
2022/03/20 03:39:46;;;;;;;11.87;6.57;;;;;;;4.87;55.60;100175.38;8209405;28;20062;-74
2022/03/20 03:43:47;;;;;;;9.43;6.03;;;;;;;4.85;55.74;100183.03;8209790;28;20054;-74
2022/03/20 03:47:50;;;;;;;8.40;5.97;;;;;;;4.85;55.42;100177.88;8228657;28;20069;-74
2022/03/20 03:51:52;;;;;;;7.33;5.43;;;;;;;4.83;55.60;100177.81;8246590;28;20668;-74
2022/03/20 03:55:53;;;;;;;9.03;6.20;;;;;;;4.78;55.49;100181.94;8235169;28;20148;-74
2022/03/20 03:59:55;;;;;;;9.27;5.80;;;;;;;4.71;55.77;100174.88;8235571;28;20494;-73
2022/03/20 04:03:56;;;;;;;7.70;5.67;;;;;;;4.65;56.08;100176.38;8225776;28;20449;-74
2022/03/20 04:07:58;;;;;;;11.73;6.73;;;;;;;4.61;56.44;100174.53;8229413;28;20141;-73
2022/03/20 04:11:59;;;;;;;8.33;6.40;;;;;;;4.59;56.42;100176.19;8231734;28;20081;-73
2022/03/20 04:16:01;;;;;;;8.07;6.40;;;;;;;4.53;56.25;100180.31;8226907;28;20101;-73
2022/03/20 04:20:04;;;;;;;10.60;6.53;;;;;;;4.51;56.28;100171.69;8226807;28;21750;-73
2022/03/20 04:24:07;;;;;;;10.53;6.80;;;;;;;4.46;56.50;100168.06;8230668;28;20058;-74
2022/03/20 04:28:09;;;;;;;;;;;;;;;4.43;56.67;100165.41;8232267;28;20511;-74
2022/03/20 04:32:13;;;;;;;6.83;5.97;;;;;;;4.39;56.41;100165.25;8224873;28;19926;-75
2022/03/20 04:36:16;;;;;;;8.80;6.07;;;;;;;4.36;56.65;100157.44;8233020;28;20708;-74
2022/03/20 04:40:18;;;;;;;12.20;5.85;;;;;;;4.34;56.47;100165.13;8227835;28;20055;-74
2022/03/20 04:44:19;;;;;;;9.77;6.43;;;;;;;4.35;56.32;100166.84;8228560;28;20113;-73
2022/03/20 05:01:21;;;;;;;7.20;5.80;;;;;;;4.39;55.91;100165.25;8225433;28;20137;-74
2022/03/20 05:05:23;;;;;;;7.17;5.83;;;;;;;4.40;55.87;100157.59;8233893;28;20101;-74
2022/03/20 05:13:45;;;;;;;8.90;6.37;;;;;;;4.42;55.94;100158.50;8228323;28;20058;-74
2022/03/20 05:17:46;;;;;;;9.17;5.77;;;;;;;4.44;55.64;100161.13;8221368;28;20064;-74
2022/03/20 05:21:48;;;;;;;9.00;5.53;;;;;;;4.43;55.51;100164.53;8230010;28;20057;-74
2022/03/20 05:25:50;;;;;;;8.03;6.30;;;;;;;4.46;55.67;100164.63;8232279;28;20133;-74
2022/03/20 05:29:51;;;;;;;9.23;5.83;;;;;;;4.45;55.30;100162.88;8241369;28;20047;-74
2022/03/20 05:33:53;;;;;;;9.77;6.60;;;;;;;4.47;55.28;100159.53;8241758;28;20370;-74
2022/03/20 05:37:56;;;;;;;;;;;;;;;4.47;55.74;100159.53;8228230;28;20054;-74
2022/03/20 05:41:57;;;;;;;9.87;5.43;;;;;;;4.47;55.40;100156.06;8225447;28;20024;-74
2022/03/20 05:45:58;;;;;;;9.33;5.93;;;;;;;4.45;55.22;100161.16;8220972;28;20058;-74
2022/03/20 05:50:01;;;;;;;8.73;6.03;;;;;;;4.44;55.24;100162.00;8228517;28;20058;-74
2022/03/20 05:54:05;;;;;;;8.65;5.80;;;;;;;4.46;55.29;100151.75;8233047;28;20612;-74
2022/03/20 05:58:11;;;;;;;9.13;6.37;;;;;;;4.47;55.55;100123.53;8235381;28;20061;-74
2022/03/20 06:02:13;;;;;;;8.63;6.00;;;;;;;4.47;55.55;100149.22;8230737;28;20145;-74
2022/03/20 06:06:15;;;;;;;9.80;6.37;;;;;;;4.48;55.52;100156.13;8257574;28;20054;-74
2022/03/20 06:10:18;;;;;;;11.82;6.30;;;;;;;4.49;55.51;100160.47;8241709;28;20055;-74
2022/03/20 06:14:21;;;;;;;10.83;6.10;;;;;;;4.51;55.39;100165.66;8236896;28;20042;-74
2022/03/20 06:18:25;;;;;;;8.57;6.30;;;;;;;4.55;55.92;100159.78;8229784;28;20058;-74
2022/03/20 06:22:27;;;;;;;10.40;6.00;;;;;;;4.61;56.08;100159.09;8242580;28;20082;-74
2022/03/20 06:26:28;;;;;;;8.13;5.77;;;;;;;4.68;56.31;100172.22;8232767;28;20858;-74
2022/03/20 06:30:33;;;;;;;7.63;5.83;;;;;;;4.70;56.16;100173.13;8237697;28;20118;-74
2022/03/20 06:34:34;;;;;;;8.63;5.97;;;;;;;4.77;56.19;100171.63;8234172;28;20058;-74
2022/03/20 06:38:36;;;;;;;8.17;5.87;;;;;;;4.82;56.36;100190.63;8256415;28;20059;-74
2022/03/20 06:42:38;;;;;;;10.37;6.50;;;;;;;4.87;57.01;100189.09;8251314;28;20077;-74
2022/03/20 06:46:39;;;;;;;7.67;6.47;;;;;;;4.90;56.62;100206.31;8229519;28;20865;-74
2022/03/20 06:50:41;;;;;;;8.77;6.43;;;;;;;4.94;56.83;100211.63;8235661;28;20106;-74
2022/03/20 06:54:43;;;;;;;7.20;6.03;;;;;;;4.98;56.35;100207.44;8231871;28;20065;-74
2022/03/20 06:58:44;;;;;;;9.73;6.70;;;;;;;4.99;56.40;100209.16;8229651;28;20392;-74
2022/03/20 07:02:47;;;;;;;9.07;6.57;;;;;;;5.04;56.64;100195.63;8233820;28;20422;-74
2022/03/20 07:06:49;;;;;;;;;;;;;;;5.10;56.42;100205.25;8236795;28;20065;-74
2022/03/20 07:10:50;;;;;;;11.27;6.63;;;;;;;5.13;56.05;100203.63;8236551;28;19921;-73
2022/03/20 07:14:53;;;;;;;8.33;5.87;;;;;;;5.16;56.04;100211.44;8234134;28;20074;-74
2022/03/20 07:18:55;;;;;;;9.17;6.57;;;;;;;5.25;56.01;100217.72;8223582;28;20086;-75
2022/03/20 07:23:00;;;;;;;10.13;5.97;;;;;;;5.28;56.09;100234.13;8235735;28;20129;-75
2022/03/20 07:31:22;;;;;;;10.47;6.23;;;;;;;5.35;55.58;100215.44;8230481;28;20065;-75
2022/03/20 07:35:24;;;;;;;9.50;6.90;;;;;;;5.45;55.83;100232.91;8249688;28;20054;-75
2022/03/20 07:39:26;;;;;;;9.93;6.38;;;;;;;5.47;55.60;100236.41;8222899;28;20058;-74
2022/03/20 07:43:27;;;;;;;9.77;6.37;;;;;;;5.53;56.35;100240.84;8224006;28;20051;-75
2022/03/20 07:47:29;;;;;;;8.53;6.67;;;;;;;5.54;57.24;100232.28;8194014;28;20059;-74
2022/03/20 07:51:35;;;;;;;12.40;7.73;;;;;;;5.59;57.64;100210.16;8212435;28;20059;-75
2022/03/20 07:55:37;;;;;;;9.57;7.28;;;;;;;5.70;58.15;100241.34;8212090;28;20051;-75
2022/03/20 07:59:38;;;;;;;10.83;7.33;;;;;;;5.82;58.86;100235.69;8205196;28;20177;-74
2022/03/20 08:03:41;;;;;;;10.17;7.60;;;;;;;5.94;59.54;100244.66;8212396;28;20169;-75
2022/03/20 08:07:43;;;;;;;;;;;;;;;6.04;58.74;100251.81;8248849;28;20057;-75
2022/03/20 08:11:44;;;;;;;11.67;7.47;;;;;;;6.11;59.33;100250.28;8215909;28;19929;-75
2022/03/20 08:15:46;;;;;;;15.87;8.47;;;;;;;6.20;59.44;100257.38;8229815;28;20066;-75
2022/03/20 08:19:47;;;;;;;20.73;8.43;;;;;;;6.29;59.78;100263.69;8239281;28;20148;-75
2022/03/20 08:23:49;;;;;;;13.37;8.80;;;;;;;6.40;59.81;100247.59;8234459;28;20058;-75
2022/03/20 08:27:51;;;;;;;10.40;7.80;;;;;;;6.55;60.52;100238.53;8233379;28;20165;-75
2022/03/20 08:31:54;;;;;;;10.60;8.43;;;;;;;6.71;59.40;100262.16;8217917;28;20169;-74
2022/03/20 08:35:55;;;;;;;15.13;8.85;;;;;;;6.82;59.44;100276.19;8221835;28;20069;-75
2022/03/20 08:39:57;;;;;;;12.30;9.13;;;;;;;6.93;59.76;100270.47;8228236;28;20189;-75
2022/03/20 08:43:59;;;;;;;12.90;8.77;;;;;;;7.05;59.76;100272.47;8227948;28;20157;-75
2022/03/20 08:48:00;;;;;;;14.97;9.87;;;;;;;7.17;60.33;100285.66;8224435;28;20316;-75
2022/03/20 08:52:02;;;;;;;12.07;8.70;;;;;;;7.25;60.42;100281.56;8229199;28;20153;-75
2022/03/20 08:56:04;;;;;;;13.95;9.52;;;;;;;7.34;60.47;100292.94;8230091;28;20370;-74
2022/03/20 09:00:10;;;;;;;16.77;10.70;;;;;;;7.44;60.50;100289.72;8225419;28;20100;-74
2022/03/20 09:04:12;;;;;;;10.88;8.85;;;;;;;7.53;60.07;100295.97;8228525;28;20992;-74
2022/03/20 09:08:13;;;;;;;14.47;8.47;;;;;;;7.64;59.36;100290.16;8210378;28;20446;-75
2022/03/20 09:12:15;;;;;;;17.95;8.90;;;;;;;7.72;59.09;100296.34;8211968;28;20065;-75
2022/03/20 09:20:39;;;;;;;11.60;8.43;;;;;;;7.80;58.69;100300.00;8227445;28;20065;-74
2022/03/20 09:24:40;;;;;;;14.13;8.40;;;;;;;7.89;58.88;100315.69;8224185;28;20619;-75
2022/03/20 09:28:44;;;;;;;14.00;8.50;;;;;;;7.99;59.40;100306.44;8213878;28;20054;-74
2022/03/20 09:32:46;;;;;;;13.43;8.85;;;;;;;8.05;59.38;100307.41;8230654;28;20593;-72
2022/03/20 09:36:47;;;;;;;15.70;8.65;;;;;;;8.16;59.76;100303.34;8232847;28;20196;-74
2022/03/20 09:40:50;;;;;;;12.45;8.40;;;;;;;8.31;60.75;100300.19;8233962;28;20057;-74
2022/03/20 09:44:53;;;;;;;12.52;8.40;;;;;;;8.37;62.05;100299.44;8233105;28;20042;-74
2022/03/20 09:48:55;;;;;;;;;;;;;;;8.35;63.13;100295.97;8230928;28;20150;-75
2022/03/20 09:52:57;;;;;;;11.02;8.00;;;;;;;8.31;64.82;100294.13;8229918;28;20326;-75
2022/03/20 09:57:02;;;;;;;12.27;7.72;;;;;;;8.27;65.63;100288.03;8235229;28;20446;-74
2022/03/20 10:01:03;;;;;;;13.23;8.45;;;;;;;8.21;67.20;100287.91;8230147;28;20061;-74
2022/03/20 10:05:07;;;;;;;12.43;8.35;;;;;;;8.21;68.01;100280.13;8232305;28;20464;-74
2022/03/20 10:09:13;;;;;;;11.67;8.37;;;;;;;8.35;68.69;100270.09;8215911;28;20050;-75
2022/03/20 10:13:14;;;;;;;12.73;7.68;;;;;;;8.77;68.84;100264.78;8236148;28;20112;-75
2022/03/20 10:17:16;;;;;;;11.63;8.38;;;;;;;9.21;67.10;100275.00;8235381;28;20054;-75
2022/03/20 10:21:19;;;;;;;9.73;7.80;;;;;;;9.65;67.07;100270.44;8238239;28;20444;-75
2022/03/20 10:25:24;;;;;;;13.25;8.40;;;;;;;10.05;65.74;100279.59;8220275;28;20065;-75
2022/03/20 10:29:29;;;;;;;10.05;6.53;;;;;;;10.35;63.87;100280.84;8237105;28;20153;-75
2022/03/20 10:33:30;;;;;;;11.02;6.80;;;;;;;10.55;63.84;100279.31;8235139;28;20205;-74
2022/03/20 10:37:48;;;;;;;10.60;8.77;;;;;;;10.67;63.22;100273.38;8231550;28;20051;-74
2022/03/20 10:41:53;;;;;;;13.77;8.50;;;;;;;10.86;63.47;100288.28;8236687;28;20062;-75
2022/03/20 10:46:17;;;;;;;13.75;7.57;;;;;;;10.98;62.53;100293.59;8234443;28;20431;-75
2022/03/20 10:50:19;;;;;;;11.63;7.30;;;;;;;11.22;62.55;100308.50;8221205;28;20050;-74
2022/03/20 10:54:22;;;;;;;7.93;5.95;;;;;;;11.28;61.25;100302.47;8239203;28;20056;-74
2022/03/20 10:58:26;;;;;;;11.13;6.22;;;;;;;11.47;61.12;100305.22;8238998;28;20058;-74
2022/03/20 11:02:28;;;;;;;10.95;7.10;;;;;;;11.66;60.51;100307.91;8217131;28;20093;-74
2022/03/20 11:06:29;;;;;;;8.07;5.93;;;;;;;11.66;60.79;100313.13;8237439;28;20050;-74
2022/03/20 11:10:31;;;;;;;8.73;5.57;;;;;;;11.90;60.24;100313.31;8239265;28;20061;-74
2022/03/20 11:14:35;;;;;;;7.87;5.50;;;;;;;12.21;59.29;100303.00;8236242;28;20046;-74
2022/03/20 11:18:39;;;;;;;6.68;4.93;;;;;;;12.54;58.88;100315.28;8233198;28;21528;-74
2022/03/20 11:22:50;;;;;;;9.48;5.90;;;;;;;12.62;57.57;100311.84;8237543;28;20436;-75
2022/03/20 11:26:53;;;;;;;11.25;6.57;;;;;;;12.91;57.71;100318.81;8237241;28;20058;-74
2022/03/20 11:30:57;;;;;;;8.15;4.78;;;;;;;12.99;57.06;100312.75;8233078;28;20176;-74
2022/03/20 11:35:00;;;;;;;7.10;5.68;;;;;;;13.15;55.58;100305.81;8236730;28;20064;-74
2022/03/20 11:39:12;;;;;;;7.32;6.00;;;;;;;13.29;55.90;100311.06;8228837;28;20058;-74
2022/03/20 11:43:16;;;;;;;8.32;5.10;;;;;;;13.35;55.66;100313.66;8230116;28;20064;-74
2022/03/20 11:47:19;;;;;;;11.00;5.78;;;;;;;13.45;54.73;100311.88;8227364;28;20055;-74
2022/03/20 11:51:58;;;;;;;10.43;5.93;;;;;;;13.86;54.24;100327.47;8238280;28;20054;-74
2022/03/20 11:56:00;;;;;;;11.52;6.38;;;;;;;14.01;51.76;100339.63;8239150;28;20340;-74
2022/03/20 12:00:13;;;;;;;12.07;6.87;;;;;;;14.28;50.96;100326.44;8240807;28;20149;-74
2022/03/20 12:04:21;;;;;;;13.70;7.00;;;;;;;14.26;49.58;100336.03;8240766;28;20337;-75
2022/03/20 12:08:44;;;;;;;13.75;7.07;;;;;;;14.58;49.85;100332.44;8240489;28;20852;-74
2022/03/20 12:13:12;;;;;;;9.30;6.75;;;;;;;15.02;48.48;100321.69;8249329;28;20058;-74
2022/03/20 12:17:13;;;;;;;9.40;7.18;;;;;;;15.15;46.62;100328.56;8209304;28;20092;-74
2022/03/20 12:21:15;;;;;;;11.40;6.37;;;;;;;14.94;46.19;100313.91;8223319;28;20347;-74
2022/03/20 12:25:42;;;;;;;11.77;7.03;;;;;;;14.82;46.51;100319.22;8238800;28;20057;-74
2022/03/20 12:29:45;;;;;;;11.02;7.63;;;;;;;15.02;47.32;100312.09;8238288;28;20056;-74
2022/03/20 12:34:21;;;;;;;15.43;7.03;;;;;;;15.45;46.32;100316.97;8233852;28;20084;-74
2022/03/20 12:38:34;;;;;;;12.50;6.55;;;;;;;15.60;45.50;100315.97;8234985;28;20078;-74
2022/03/20 12:42:38;;;;;;;8.57;7.22;;;;;;;15.66;44.76;100318.53;8235262;28;21594;-74
2022/03/20 12:46:42;;;;;;;8.35;6.10;;;;;;;15.40;45.17;100331.81;8232613;28;20072;-74
2022/03/20 12:50:46;;;;;;;12.52;6.13;;;;;;;15.26;45.69;100325.84;8235311;28;20050;-74
2022/03/20 12:54:53;;;;;;;10.75;6.75;;;;;;;15.50;44.54;100315.16;8234873;28;20054;-73
2022/03/20 12:58:55;;;;;;;10.30;6.72;;;;;;;15.74;44.18;100323.69;8234169;28;20054;-74
2022/03/20 13:03:01;;;;;;;8.60;6.57;;;;;;;15.75;44.32;100334.13;8233007;28;20084;-74
2022/03/20 13:07:30;;;;;;;14.65;7.35;;;;;;;15.97;44.25;100321.66;8241457;28;20128;-73
2022/03/20 13:15:52;;;;;;;10.63;7.43;;;;;;;15.86;43.76;100323.56;8236568;28;20121;-73
2022/03/20 13:19:54;;;;;;;9.63;6.90;;;;;;;15.89;43.85;100313.91;8223693;28;20054;-74
2022/03/20 13:23:56;;;;;;;8.67;6.47;;;;;;;16.17;44.31;100311.84;8239493;28;20142;-74
2022/03/20 13:27:57;;;;;;;;;;;;;;;16.28;40.82;100306.44;8240822;28;20113;-74
2022/03/20 13:32:01;;;;;;;9.40;6.65;;;;;;;16.26;41.56;100309.09;8237573;28;19999;-73
2022/03/20 13:36:08;;;;;;;9.77;6.30;;;;;;;16.19;41.53;100304.81;8240443;28;20054;-73
2022/03/20 13:40:09;;;;;;;8.18;5.80;;;;;;;16.14;41.54;100305.75;8242744;28;20247;-73
2022/03/20 13:44:11;;;;;;;7.17;6.27;;;;;;;16.17;41.73;100305.75;8245189;28;20046;-73
2022/03/20 13:48:13;;;;;;;7.93;5.70;;;;;;;16.18;41.50;100310.09;8241441;28;22253;-73
2022/03/20 13:52:35;;;;;;;11.82;5.60;;;;;;;16.22;42.45;100311.78;8245123;28;20053;-73
2022/03/20 13:56:37;;;;;;;9.70;6.20;;;;;;;16.19;41.70;100314.44;8258281;28;20391;-73
2022/03/20 14:00:41;;;;;;;11.93;5.63;;;;;;;16.09;41.88;100315.44;8252884;28;20081;-73
2022/03/20 14:04:42;;;;;;;6.07;4.65;;;;;;;15.99;42.18;100312.94;8265992;28;20042;-73
2022/03/20 14:08:51;;;;;;;11.45;5.63;;;;;;;16.03;42.16;100316.38;8260116;28;20783;-73
2022/03/20 14:12:52;;;;;;;8.10;5.53;;;;;;;15.92;42.01;100313.00;8262541;28;20176;-73
2022/03/20 14:16:59;;;;;;;11.83;5.27;;;;;;;15.99;42.22;100312.94;8265428;28;20069;-73
2022/03/20 14:21:14;;;;;;;9.20;5.68;;;;;;;15.92;41.36;100313.00;8263704;28;20783;-73
2022/03/20 14:25:35;;;;;;;9.80;5.97;;;;;;;15.90;42.07;100313.03;8257597;28;20065;-73
2022/03/20 14:42:41;;;;;;;8.10;5.55;;;;;;;16.52;41.65;100314.00;8263400;28;20289;-73
2022/03/20 14:46:54;;;;;;;6.97;5.75;;;;;;;16.47;41.11;100318.41;8256734;28;20050;-73
2022/03/20 14:50:56;;;;;;;8.65;6.15;;;;;;;16.31;40.28;100314.25;8260763;28;20054;-73
2022/03/20 14:55:01;;;;;;;9.85;5.13;;;;;;;16.20;41.36;100309.19;8259410;28;20053;-72
2022/03/20 14:59:03;;;;;;;8.07;5.90;;;;;;;16.22;41.70;100315.25;8255285;28;20054;-72
2022/03/20 15:03:05;;;;;;;10.25;6.55;;;;;;;16.28;41.52;100309.06;8250925;28;20054;-73
2022/03/20 15:07:08;;;;;;;7.40;5.68;;;;;;;16.31;42.34;100304.66;8254456;28;20555;-73
2022/03/20 15:11:24;;;;;;;10.20;6.03;;;;;;;16.34;42.76;100301.16;8254007;28;20432;-73
2022/03/20 15:15:26;;;;;;;8.88;6.10;;;;;;;16.41;41.99;100307.16;8255140;28;20151;-72
2022/03/20 15:19:28;;;;;;;8.17;7.13;;;;;;;16.56;42.96;100309.56;8254940;28;20050;-73
2022/03/20 15:23:29;;;;;;;11.03;7.97;;;;;;;16.47;45.28;100307.06;8257988;28;20050;-73
2022/03/20 15:27:30;;;;;;;10.77;7.63;;;;;;;16.44;45.09;100305.34;8268336;28;20145;-73
2022/03/20 15:31:33;;;;;;;10.87;8.50;;;;;;;16.51;45.56;100303.50;8249609;28;20438;-72
2022/03/20 15:35:35;;;;;;;10.65;7.80;;;;;;;16.79;45.96;100304.88;8254651;28;20370;-72
2022/03/20 15:39:37;;;;;;;10.60;7.05;;;;;;;16.94;44.50;100313.41;8259715;28;20050;-72
2022/03/20 15:43:40;;;;;;;10.65;7.70;;;;;;;17.24;44.66;100304.19;8257335;28;20152;-72
2022/03/20 15:47:42;;;;;;;10.63;8.98;;;;;;;17.08;43.20;100311.44;8253802;28;20058;-72
2022/03/20 15:51:44;;;;;;;9.23;7.40;;;;;;;16.67;44.63;100307.69;8263937;28;20050;-72
2022/03/20 15:55:46;;;;;;;;;;;;;;;16.82;44.20;100301.34;8267985;28;20050;-73
2022/03/20 15:59:47;;;;;;;8.55;7.03;;;;;;;17.25;43.97;100313.81;8268108;28;19929;-72
2022/03/20 16:03:50;;;;;;;11.88;8.13;;;;;;;18.18;42.06;100302.44;8262476;28;20054;-72
2022/03/20 16:07:52;;;;;;;11.20;9.02;;;;;;;18.22;41.01;100311.09;8264178;28;20133;-72
2022/03/20 16:11:54;;;;;;;11.57;8.48;;;;;;;18.67;40.39;100304.91;8235558;28;20053;-72
2022/03/20 16:15:56;;;;;;;13.48;10.40;;;;;;;18.65;40.21;100306.66;8240669;28;20072;-72
2022/03/20 16:19:58;;;;;;;14.15;8.95;;;;;;;18.69;40.53;100307.50;8257358;28;20440;-72
2022/03/20 16:28:35;;;;;;;13.27;8.82;;;;;;;20.23;37.21;100308.75;8254203;28;20060;-73
2022/03/20 16:32:36;;;;;;;11.52;9.30;;;;;;;20.70;36.14;100310.00;8248529;28;20054;-73
2022/03/20 16:36:38;;;;;;;11.73;9.00;;;;;;;19.63;37.08;100321.88;8250583;28;20149;-72
2022/03/20 16:40:41;;;;;;;9.60;8.48;;;;;;;17.92;40.58;100321.34;8258092;28;20058;-72
2022/03/20 16:44:43;;;;;;;14.65;9.55;;;;;;;17.30;42.40;100315.44;8254131;28;20056;-73
2022/03/20 16:48:45;;;;;;;13.38;8.35;;;;;;;16.19;44.74;100317.06;8249219;28;20169;-72
2022/03/20 16:52:46;;;;;;;14.40;7.60;;;;;;;15.42;45.96;100315.22;8258769;28;20065;-72
2022/03/20 16:56:48;;;;;;;11.03;7.00;;;;;;;14.88;47.62;100324.38;8257521;28;20068;-72
2022/03/20 17:00:50;;;;;;;15.75;7.60;;;;;;;14.36;49.99;100329.91;8257549;28;20311;-72
2022/03/20 17:04:51;;;;;;;12.18;7.28;;;;;;;13.86;51.41;100330.97;8261425;28;20064;-72
2022/03/20 17:08:53;;;;;;;10.63;7.47;;;;;;;13.52;51.86;100334.50;8255794;28;20066;-72
2022/03/20 17:12:56;;;;;;;9.40;6.43;;;;;;;13.22;53.48;100341.47;8246912;28;20058;-71
2022/03/20 17:16:57;;;;;;;13.43;7.00;;;;;;;12.92;54.81;100336.19;8251777;28;20710;-71
2022/03/20 17:20:59;;;;;;;9.00;7.13;;;;;;;12.57;56.58;100339.63;8258566;28;20069;-71
2022/03/20 17:25:00;;;;;;;11.43;6.43;;;;;;;12.34;56.33;100339.53;8262097;28;20046;-71
2022/03/20 17:29:02;;;;;;;12.97;6.83;;;;;;;12.09;57.89;100351.59;8263493;28;20614;-71
2022/03/20 17:33:06;;;;;;;10.13;6.43;;;;;;;11.88;58.32;100353.22;8254861;28;20593;-71
2022/03/20 17:37:07;;;;;;;11.27;7.20;;;;;;;11.59;58.80;100348.66;8259803;28;20063;-71
2022/03/20 17:41:09;;;;;;;11.00;6.90;;;;;;;11.35;59.51;100357.16;8260813;28;20127;-71
2022/03/20 17:45:10;;;;;;;11.00;7.57;;;;;;;11.18;60.25;100358.75;8255549;28;20510;-71
2022/03/20 17:49:12;;;;;;;10.00;7.57;;;;;;;10.98;60.89;100363.75;8255736;28;20064;-71
2022/03/20 17:53:14;;;;;;;14.93;7.65;;;;;;;10.86;60.72;100368.81;8258437;28;20172;-71
2022/03/20 17:57:16;;;;;;;9.77;6.63;;;;;;;10.70;61.33;100365.19;8264870;28;20148;-71
2022/03/20 18:01:18;;;;;;;11.60;6.82;;;;;;;10.62;61.48;100376.38;8264451;28;20178;-71
2022/03/20 18:09:40;;;;;;;14.15;7.43;;;;;;;10.30;62.41;100389.81;8258926;28;20057;-71
2022/03/20 18:13:43;;;;;;;11.93;7.15;;;;;;;10.18;63.48;100397.41;8263788;28;20141;-71
2022/03/20 18:17:46;;;;;;;14.45;7.82;;;;;;;10.03;63.29;100392.88;8263540;28;20140;-71
2022/03/20 18:21:48;;;;;;;12.20;7.50;;;;;;;9.89;64.07;100399.63;8264297;28;20812;-71
2022/03/20 18:25:50;;;;;;;15.50;7.38;;;;;;;9.63;65.58;100401.81;8260348;28;20138;-71
2022/03/20 18:29:51;;;;;;;12.63;7.82;;;;;;;9.43;66.73;100398.03;8262707;28;20053;-71
2022/03/20 18:33:53;;;;;;;11.93;7.10;;;;;;;9.31;66.83;100402.16;8260121;28;20069;-71
2022/03/20 18:37:56;;;;;;;11.90;8.25;;;;;;;9.21;67.81;100408.03;8251872;28;20061;-72
2022/03/20 18:41:58;;;;;;;12.95;7.25;;;;;;;9.08;67.72;100406.94;8265753;28;20105;-71
2022/03/20 18:46:00;;;;;;;11.57;8.02;;;;;;;8.97;68.47;100411.03;8262033;28;20061;-71
2022/03/20 18:50:03;;;;;;;11.32;8.70;;;;;;;8.82;69.00;100412.50;8268221;28;20053;-71
2022/03/20 18:54:05;;;;;;;11.30;7.68;;;;;;;8.77;69.04;100418.44;8260331;28;20058;-70
2022/03/20 18:58:06;;;;;;;9.63;7.47;;;;;;;8.74;69.49;100418.38;8262214;28;20054;-71
2022/03/20 19:02:08;;;;;;;9.90;7.97;;;;;;;8.67;70.08;100424.31;8260057;28;20066;-71
2022/03/20 19:06:10;;;;;;;9.15;7.20;;;;;;;8.56;70.45;100418.03;8262426;28;20053;-71
2022/03/20 19:10:13;;;;;;;11.43;7.95;;;;;;;8.44;71.08;100422.97;8266549;28;20518;-71
2022/03/20 19:14:15;;;;;;;12.70;8.05;;;;;;;8.43;70.82;100432.41;8263713;28;20046;-71
2022/03/20 19:18:18;;;;;;;16.13;8.67;;;;;;;8.45;71.20;100425.59;8262266;28;20062;-70
2022/03/20 19:22:21;;;;;;;10.93;7.40;;;;;;;8.44;71.32;100433.31;8267546;28;20081;-70
2022/03/20 19:26:23;;;;;;;14.52;7.35;;;;;;;8.34;72.69;100432.25;8263506;28;20050;-70
2022/03/20 19:30:25;;;;;;;9.45;7.65;;;;;;;8.35;73.10;100439.16;8255873;28;20056;-70
2022/03/20 19:43:07;;;;;;;12.20;8.05;;;;;;;8.33;72.87;100439.94;8263608;28;20049;-72
2022/03/20 19:47:09;;;;;;;10.97;8.37;;;;;;;8.32;72.76;100441.66;8235805;28;20152;-72
2022/03/20 19:51:12;;;;;;;13.93;8.40;;;;;;;8.32;73.57;100441.66;8256423;28;20355;-72
2022/03/20 19:55:13;;;;;;;12.13;7.93;;;;;;;8.29;73.39;100436.41;8258500;28;20046;-72
2022/03/20 19:59:15;;;;;;;16.40;8.70;;;;;;;8.35;72.72;100441.75;8262552;28;20652;-72